sensor_id;sensor_type;location;lat;lon;timestamp;temperature;humidity
47861;HTU21D;33620;52.340;5.984;2024-03-25T00:00:58;5.90;95.90
47861;HTU21D;33620;52.340;5.984;2024-03-25T00:03:24;5.90;96.20
47861;HTU21D;33620;52.340;5.984;2024-03-25T00:05:49;5.91;96.29
47861;HTU21D;33620;52.340;5.984;2024-03-25T00:08:15;5.89;96.19
47861;HTU21D;33620;52.340;5.984;2024-03-25T00:10:40;5.89;96.28
47861;HTU21D;33620;52.340;5.984;2024-03-25T00:13:06;5.91;96.36
47861;HTU21D;33620;52.340;5.984;2024-03-25T00:15:31;5.91;96.26
47861;HTU21D;33620;52.340;5.984;2024-03-25T00:17:56;5.89;96.21
47861;HTU21D;33620;52.340;5.984;2024-03-25T00:20:22;5.91;96.23
47861;HTU21D;33620;52.340;5.984;2024-03-25T00:22:47;5.92;96.00
47861;HTU21D;33620;52.340;5.984;2024-03-25T00:25:12;5.93;95.94
47861;HTU21D;33620;52.340;5.984;2024-03-25T00:27:38;5.93;95.70
47861;HTU21D;33620;52.340;5.984;2024-03-25T00:30:03;5.90;95.35
47861;HTU21D;33620;52.340;5.984;2024-03-25T00:32:30;5.83;95.40
47861;HTU21D;33620;52.340;5.984;2024-03-25T00:34:55;5.80;95.49
47861;HTU21D;33620;52.340;5.984;2024-03-25T00:37:21;5.76;95.43
47861;HTU21D;33620;52.340;5.984;2024-03-25T00:39:46;5.75;95.33
47861;HTU21D;33620;52.340;5.984;2024-03-25T00:42:12;5.70;95.34
47861;HTU21D;33620;52.340;5.984;2024-03-25T00:44:37;5.66;95.23
47861;HTU21D;33620;52.340;5.984;2024-03-25T00:47:03;5.65;95.29
47861;HTU21D;33620;52.340;5.984;2024-03-25T00:49:28;5.61;95.03
47861;HTU21D;33620;52.340;5.984;2024-03-25T00:51:54;5.53;95.06
47861;HTU21D;33620;52.340;5.984;2024-03-25T00:54:19;5.50;95.22
47861;HTU21D;33620;52.340;5.984;2024-03-25T00:56:45;5.49;95.30
47861;HTU21D;33620;52.340;5.984;2024-03-25T00:59:11;5.46;95.23
47861;HTU21D;33620;52.340;5.984;2024-03-25T01:01:37;5.43;95.04
47861;HTU21D;33620;52.340;5.984;2024-03-25T01:04:02;5.37;94.99
47861;HTU21D;33620;52.340;5.984;2024-03-25T01:06:28;5.34;95.14
47861;HTU21D;33620;52.340;5.984;2024-03-25T01:08:53;5.31;95.26
47861;HTU21D;33620;52.340;5.984;2024-03-25T01:11:19;5.33;95.24
47861;HTU21D;33620;52.340;5.984;2024-03-25T01:13:44;5.32;95.26
47861;HTU21D;33620;52.340;5.984;2024-03-25T01:16:10;5.33;95.23
47861;HTU21D;33620;52.340;5.984;2024-03-25T01:18:36;5.32;95.04
47861;HTU21D;33620;52.340;5.984;2024-03-25T01:21:02;5.28;94.81
47861;HTU21D;33620;52.340;5.984;2024-03-25T01:23:27;5.27;94.89
47861;HTU21D;33620;52.340;5.984;2024-03-25T01:25:53;5.26;94.85
47861;HTU21D;33620;52.340;5.984;2024-03-25T01:28:18;5.27;94.81
47861;HTU21D;33620;52.340;5.984;2024-03-25T01:30:44;5.26;94.61
47861;HTU21D;33620;52.340;5.984;2024-03-25T01:33:09;5.21;94.54
47861;HTU21D;33620;52.340;5.984;2024-03-25T01:35:34;5.18;94.44
47861;HTU21D;33620;52.340;5.984;2024-03-25T01:38:00;5.13;94.57
47861;HTU21D;33620;52.340;5.984;2024-03-25T01:40:26;5.15;94.66
47861;HTU21D;33620;52.340;5.984;2024-03-25T01:42:58;5.15;94.72
47861;HTU21D;33620;52.340;5.984;2024-03-25T01:45:25;5.16;94.59
47861;HTU21D;33620;52.340;5.984;2024-03-25T01:47:51;5.10;94.63
47861;HTU21D;33620;52.340;5.984;2024-03-25T01:50:17;5.07;94.94
47861;HTU21D;33620;52.340;5.984;2024-03-25T01:52:43;5.10;95.11
47861;HTU21D;33620;52.340;5.984;2024-03-25T01:55:13;5.15;95.16
47861;HTU21D;33620;52.340;5.984;2024-03-25T01:57:42;5.11;94.99
47861;HTU21D;33620;52.340;5.984;2024-03-25T02:00:09;5.12;95.24
47861;HTU21D;33620;52.340;5.984;2024-03-25T02:02:35;5.16;95.27
47861;HTU21D;33620;52.340;5.984;2024-03-25T02:05:02;5.19;95.29
47861;HTU21D;33620;52.340;5.984;2024-03-25T02:07:28;5.19;95.28
47861;HTU21D;33620;52.340;5.984;2024-03-25T02:09:55;5.17;95.21
47861;HTU21D;33620;52.340;5.984;2024-03-25T02:12:21;5.18;95.34
47861;HTU21D;33620;52.340;5.984;2024-03-25T02:14:47;5.20;95.40
47861;HTU21D;33620;52.340;5.984;2024-03-25T02:17:12;5.21;95.48
47861;HTU21D;33620;52.340;5.984;2024-03-25T02:19:39;5.20;95.36
47861;HTU21D;33620;52.340;5.984;2024-03-25T02:22:04;5.19;95.14
47861;HTU21D;33620;52.340;5.984;2024-03-25T02:24:31;5.13;95.26
47861;HTU21D;33620;52.340;5.984;2024-03-25T02:26:58;5.12;95.38
47861;HTU21D;33620;52.340;5.984;2024-03-25T02:29:35;5.10;95.29
47861;HTU21D;33620;52.340;5.984;2024-03-25T02:32:00;5.05;95.27
47861;HTU21D;33620;52.340;5.984;2024-03-25T02:34:26;5.04;95.51
47861;HTU21D;33620;52.340;5.984;2024-03-25T02:36:51;5.05;95.53
47861;HTU21D;33620;52.340;5.984;2024-03-25T02:39:17;5.07;95.59
47861;HTU21D;33620;52.340;5.984;2024-03-25T02:41:43;5.06;95.35
47861;HTU21D;33620;52.340;5.984;2024-03-25T02:44:09;5.05;95.36
47861;HTU21D;33620;52.340;5.984;2024-03-25T02:46:34;5.02;95.30
47861;HTU21D;33620;52.340;5.984;2024-03-25T02:48:59;4.98;95.24
47861;HTU21D;33620;52.340;5.984;2024-03-25T02:51:25;4.95;95.30
47861;HTU21D;33620;52.340;5.984;2024-03-25T02:53:50;4.92;95.26
47861;HTU21D;33620;52.340;5.984;2024-03-25T02:56:16;4.91;95.22
47861;HTU21D;33620;52.340;5.984;2024-03-25T02:58:41;4.90;95.38
47861;HTU21D;33620;52.340;5.984;2024-03-25T03:01:07;4.84;95.35
47861;HTU21D;33620;52.340;5.984;2024-03-25T03:03:32;4.82;95.50
47861;HTU21D;33620;52.340;5.984;2024-03-25T03:05:57;4.77;95.55
47861;HTU21D;33620;52.340;5.984;2024-03-25T03:08:23;4.77;95.54
47861;HTU21D;33620;52.340;5.984;2024-03-25T03:10:48;4.74;95.55
47861;HTU21D;33620;52.340;5.984;2024-03-25T03:13:14;4.75;95.62
47861;HTU21D;33620;52.340;5.984;2024-03-25T03:15:43;4.68;95.21
47861;HTU21D;33620;52.340;5.984;2024-03-25T03:18:09;4.63;95.36
47861;HTU21D;33620;52.340;5.984;2024-03-25T03:20:35;4.63;95.54
47861;HTU21D;33620;52.340;5.984;2024-03-25T03:23:00;4.64;95.56
47861;HTU21D;33620;52.340;5.984;2024-03-25T03:25:25;4.61;95.46
47861;HTU21D;33620;52.340;5.984;2024-03-25T03:27:51;4.60;95.64
47861;HTU21D;33620;52.340;5.984;2024-03-25T03:30:16;4.65;95.64
47861;HTU21D;33620;52.340;5.984;2024-03-25T03:32:42;4.66;95.49
47861;HTU21D;33620;52.340;5.984;2024-03-25T03:35:07;4.66;95.36
47861;HTU21D;33620;52.340;5.984;2024-03-25T03:37:32;4.68;95.58
47861;HTU21D;33620;52.340;5.984;2024-03-25T03:39:58;4.72;95.59
47861;HTU21D;33620;52.340;5.984;2024-03-25T03:42:23;4.77;95.72
47861;HTU21D;33620;52.340;5.984;2024-03-25T03:44:48;4.80;95.56
47861;HTU21D;33620;52.340;5.984;2024-03-25T03:47:14;4.81;95.57
47861;HTU21D;33620;52.340;5.984;2024-03-25T03:49:39;4.84;95.51
47861;HTU21D;33620;52.340;5.984;2024-03-25T03:52:05;4.88;95.68
47861;HTU21D;33620;52.340;5.984;2024-03-25T03:54:30;4.91;95.50
47861;HTU21D;33620;52.340;5.984;2024-03-25T03:56:55;4.91;95.57
47861;HTU21D;33620;52.340;5.984;2024-03-25T03:59:21;4.95;95.57
47861;HTU21D;33620;52.340;5.984;2024-03-25T04:01:46;5.01;95.49
47861;HTU21D;33620;52.340;5.984;2024-03-25T04:04:11;5.04;95.19
47861;HTU21D;33620;52.340;5.984;2024-03-25T04:06:37;5.01;95.01
47861;HTU21D;33620;52.340;5.984;2024-03-25T04:09:06;5.06;94.95
47861;HTU21D;33620;52.340;5.984;2024-03-25T04:11:31;5.05;94.59
47861;HTU21D;33620;52.340;5.984;2024-03-25T04:13:57;5.00;94.69
47861;HTU21D;33620;52.340;5.984;2024-03-25T04:16:22;5.07;94.81
47861;HTU21D;33620;52.340;5.984;2024-03-25T04:18:48;5.10;94.82
47861;HTU21D;33620;52.340;5.984;2024-03-25T04:21:13;5.12;94.90
47861;HTU21D;33620;52.340;5.984;2024-03-25T04:23:39;5.19;94.93
47861;HTU21D;33620;52.340;5.984;2024-03-25T04:26:06;5.22;94.76
47861;HTU21D;33620;52.340;5.984;2024-03-25T04:28:32;5.25;94.72
47861;HTU21D;33620;52.340;5.984;2024-03-25T04:30:58;5.28;94.59
47861;HTU21D;33620;52.340;5.984;2024-03-25T04:33:23;5.31;94.56
47861;HTU21D;33620;52.340;5.984;2024-03-25T04:35:48;5.31;94.35
47861;HTU21D;33620;52.340;5.984;2024-03-25T04:38:17;5.30;94.22
47861;HTU21D;33620;52.340;5.984;2024-03-25T04:40:43;5.30;93.98
47861;HTU21D;33620;52.340;5.984;2024-03-25T04:43:09;5.28;93.90
47861;HTU21D;33620;52.340;5.984;2024-03-25T04:45:34;5.24;93.86
47861;HTU21D;33620;52.340;5.984;2024-03-25T04:48:00;5.22;93.83
47861;HTU21D;33620;52.340;5.984;2024-03-25T04:50:26;5.24;93.90
47861;HTU21D;33620;52.340;5.984;2024-03-25T04:52:51;5.25;93.85
47861;HTU21D;33620;52.340;5.984;2024-03-25T04:55:17;5.21;93.55
47861;HTU21D;33620;52.340;5.984;2024-03-25T04:57:43;5.17;93.56
47861;HTU21D;33620;52.340;5.984;2024-03-25T05:00:08;5.16;93.45
47861;HTU21D;33620;52.340;5.984;2024-03-25T05:02:37;5.11;93.14
47861;HTU21D;33620;52.340;5.984;2024-03-25T05:05:03;5.06;93.10
47861;HTU21D;33620;52.340;5.984;2024-03-25T05:07:28;5.01;93.08
47861;HTU21D;33620;52.340;5.984;2024-03-25T05:09:53;5.01;93.07
47861;HTU21D;33620;52.340;5.984;2024-03-25T05:12:19;4.97;92.90
47861;HTU21D;33620;52.340;5.984;2024-03-25T05:14:45;4.89;92.82
47861;HTU21D;33620;52.340;5.984;2024-03-25T05:17:10;4.87;92.97
47861;HTU21D;33620;52.340;5.984;2024-03-25T05:19:36;4.79;92.84
47861;HTU21D;33620;52.340;5.984;2024-03-25T05:22:01;4.71;92.87
47861;HTU21D;33620;52.340;5.984;2024-03-25T05:24:26;4.72;93.18
47861;HTU21D;33620;52.340;5.984;2024-03-25T05:26:53;4.74;93.22
47861;HTU21D;33620;52.340;5.984;2024-03-25T05:29:18;4.68;93.15
47861;HTU21D;33620;52.340;5.984;2024-03-25T05:31:56;4.67;93.27
47861;HTU21D;33620;52.340;5.984;2024-03-25T05:34:23;4.67;93.32
47861;HTU21D;33620;52.340;5.984;2024-03-25T05:36:48;4.63;92.95
47861;HTU21D;33620;52.340;5.984;2024-03-25T05:39:13;4.58;93.05
47861;HTU21D;33620;52.340;5.984;2024-03-25T05:41:39;4.57;93.18
47861;HTU21D;33620;52.340;5.984;2024-03-25T05:44:04;4.56;93.32
47861;HTU21D;33620;52.340;5.984;2024-03-25T05:46:30;4.56;93.34
47861;HTU21D;33620;52.340;5.984;2024-03-25T05:48:55;4.53;93.07
47861;HTU21D;33620;52.340;5.984;2024-03-25T05:51:20;4.48;93.03
47861;HTU21D;33620;52.340;5.984;2024-03-25T05:53:46;4.46;93.13
47861;HTU21D;33620;52.340;5.984;2024-03-25T05:56:11;4.46;93.26
47861;HTU21D;33620;52.340;5.984;2024-03-25T05:58:36;4.47;93.29
47861;HTU21D;33620;52.340;5.984;2024-03-25T06:01:02;4.48;93.29
47861;HTU21D;33620;52.340;5.984;2024-03-25T06:03:29;4.49;93.23
47861;HTU21D;33620;52.340;5.984;2024-03-25T06:05:55;4.46;93.00
47861;HTU21D;33620;52.340;5.984;2024-03-25T06:08:21;4.47;93.18
47861;HTU21D;33620;52.340;5.984;2024-03-25T06:10:52;4.48;93.08
47861;HTU21D;33620;52.340;5.984;2024-03-25T06:13:18;4.44;92.91
47861;HTU21D;33620;52.340;5.984;2024-03-25T06:15:44;4.41;93.04
47861;HTU21D;33620;52.340;5.984;2024-03-25T06:18:10;4.42;93.20
47861;HTU21D;33620;52.340;5.984;2024-03-25T06:20:35;4.45;93.18
47861;HTU21D;33620;52.340;5.984;2024-03-25T06:23:00;4.43;93.09
47861;HTU21D;33620;52.340;5.984;2024-03-25T06:25:26;4.43;93.29
47861;HTU21D;33620;52.340;5.984;2024-03-25T06:27:52;4.44;93.35
47861;HTU21D;33620;52.340;5.984;2024-03-25T06:30:17;4.44;93.44
47861;HTU21D;33620;52.340;5.984;2024-03-25T06:33:01;4.49;93.85
47861;HTU21D;33620;52.340;5.984;2024-03-25T06:35:45;4.54;93.99
47861;HTU21D;33620;52.340;5.984;2024-03-25T06:38:11;4.58;94.02
47861;HTU21D;33620;52.340;5.984;2024-03-25T06:40:37;4.62;94.25
47861;HTU21D;33620;52.340;5.984;2024-03-25T06:43:03;4.68;94.38
47861;HTU21D;33620;52.340;5.984;2024-03-25T06:45:28;4.74;94.36
47861;HTU21D;33620;52.340;5.984;2024-03-25T06:47:54;4.79;94.20
47861;HTU21D;33620;52.340;5.984;2024-03-25T06:50:20;4.83;94.37
47861;HTU21D;33620;52.340;5.984;2024-03-25T06:52:45;4.89;94.43
47861;HTU21D;33620;52.340;5.984;2024-03-25T06:55:10;4.94;94.26
47861;HTU21D;33620;52.340;5.984;2024-03-25T06:57:36;4.94;94.21
47861;HTU21D;33620;52.340;5.984;2024-03-25T07:00:01;4.97;94.23
47861;HTU21D;33620;52.340;5.984;2024-03-25T07:02:27;5.00;94.19
47861;HTU21D;33620;52.340;5.984;2024-03-25T07:04:52;5.00;94.33
47861;HTU21D;33620;52.340;5.984;2024-03-25T07:07:17;5.05;94.52
47861;HTU21D;33620;52.340;5.984;2024-03-25T07:09:43;5.13;94.60
47861;HTU21D;33620;52.340;5.984;2024-03-25T07:12:08;5.22;94.81
47861;HTU21D;33620;52.340;5.984;2024-03-25T07:14:34;5.26;94.74
47861;HTU21D;33620;52.340;5.984;2024-03-25T07:16:59;5.36;94.98
47861;HTU21D;33620;52.340;5.984;2024-03-25T07:19:25;5.48;94.98
47861;HTU21D;33620;52.340;5.984;2024-03-25T07:21:50;5.57;95.05
47861;HTU21D;33620;52.340;5.984;2024-03-25T07:24:15;5.67;95.09
47861;HTU21D;33620;52.340;5.984;2024-03-25T07:26:41;5.76;95.11
47861;HTU21D;33620;52.340;5.984;2024-03-25T07:29:06;5.82;95.10
47861;HTU21D;33620;52.340;5.984;2024-03-25T07:31:31;5.85;95.17
47861;HTU21D;33620;52.340;5.984;2024-03-25T07:33:57;5.91;95.24
47861;HTU21D;33620;52.340;5.984;2024-03-25T07:36:22;5.93;95.12
47861;HTU21D;33620;52.340;5.984;2024-03-25T07:38:47;5.93;94.80
47861;HTU21D;33620;52.340;5.984;2024-03-25T07:41:13;5.90;94.81
47861;HTU21D;33620;52.340;5.984;2024-03-25T07:43:38;5.95;94.85
47861;HTU21D;33620;52.340;5.984;2024-03-25T07:46:03;5.98;94.80
47861;HTU21D;33620;52.340;5.984;2024-03-25T07:48:30;5.98;94.56
47861;HTU21D;33620;52.340;5.984;2024-03-25T07:50:55;6.04;94.85
47861;HTU21D;33620;52.340;5.984;2024-03-25T07:53:20;6.02;94.00
47861;HTU21D;33620;52.340;5.984;2024-03-25T07:55:46;6.07;94.46
47861;HTU21D;33620;52.340;5.984;2024-03-25T07:58:11;6.15;94.65
47861;HTU21D;33620;52.340;5.984;2024-03-25T08:00:36;6.20;94.48
47861;HTU21D;33620;52.340;5.984;2024-03-25T08:03:02;6.27;94.53
47861;HTU21D;33620;52.340;5.984;2024-03-25T08:05:29;6.37;94.79
47861;HTU21D;33620;52.340;5.984;2024-03-25T08:07:55;6.45;94.65
47861;HTU21D;33620;52.340;5.984;2024-03-25T08:10:20;6.52;94.32
47861;HTU21D;33620;52.340;5.984;2024-03-25T08:12:46;6.58;94.03
47861;HTU21D;33620;52.340;5.984;2024-03-25T08:15:11;6.67;94.09
47861;HTU21D;33620;52.340;5.984;2024-03-25T08:17:37;6.73;93.33
47861;HTU21D;33620;52.340;5.984;2024-03-25T08:20:02;6.79;92.69
47861;HTU21D;33620;52.340;5.984;2024-03-25T08:22:28;6.85;92.88
47861;HTU21D;33620;52.340;5.984;2024-03-25T08:24:53;6.99;93.43
47861;HTU21D;33620;52.340;5.984;2024-03-25T08:27:19;7.08;92.87
47861;HTU21D;33620;52.340;5.984;2024-03-25T08:29:44;7.13;92.25
47861;HTU21D;33620;52.340;5.984;2024-03-25T08:32:10;7.19;91.98
47861;HTU21D;33620;52.340;5.984;2024-03-25T08:34:37;7.25;92.07
47861;HTU21D;33620;52.340;5.984;2024-03-25T08:37:02;7.28;90.15
47861;HTU21D;33620;52.340;5.984;2024-03-25T08:39:29;7.31;88.94
47861;HTU21D;33620;52.340;5.984;2024-03-25T08:41:54;7.37;88.60
47861;HTU21D;33620;52.340;5.984;2024-03-25T08:44:19;7.40;88.32
47861;HTU21D;33620;52.340;5.984;2024-03-25T08:46:45;7.40;87.12
47861;HTU21D;33620;52.340;5.984;2024-03-25T08:49:10;7.43;86.92
47861;HTU21D;33620;52.340;5.984;2024-03-25T08:51:35;7.46;87.14
47861;HTU21D;33620;52.340;5.984;2024-03-25T08:54:01;7.58;87.83
47861;HTU21D;33620;52.340;5.984;2024-03-25T08:56:26;7.63;87.16
47861;HTU21D;33620;52.340;5.984;2024-03-25T08:58:51;7.73;87.62
47861;HTU21D;33620;52.340;5.984;2024-03-25T09:01:20;7.74;86.73
47861;HTU21D;33620;52.340;5.984;2024-03-25T09:03:45;7.81;86.66
47861;HTU21D;33620;52.340;5.984;2024-03-25T09:06:10;7.78;84.42
47861;HTU21D;33620;52.340;5.984;2024-03-25T09:08:36;7.91;85.42
47861;HTU21D;33620;52.340;5.984;2024-03-25T09:11:21;8.12;85.80
47861;HTU21D;33620;52.340;5.984;2024-03-25T09:13:50;8.23;84.79
47861;HTU21D;33620;52.340;5.984;2024-03-25T09:16:15;8.24;82.32
47861;HTU21D;33620;52.340;5.984;2024-03-25T09:18:40;8.24;82.52
47861;HTU21D;33620;52.340;5.984;2024-03-25T09:21:06;8.12;79.74
47861;HTU21D;33620;52.340;5.984;2024-03-25T09:23:31;8.16;81.30
47861;HTU21D;33620;52.340;5.984;2024-03-25T09:25:57;8.19;82.39
47861;HTU21D;33620;52.340;5.984;2024-03-25T09:28:22;8.26;81.74
47861;HTU21D;33620;52.340;5.984;2024-03-25T09:30:48;8.36;80.78
47861;HTU21D;33620;52.340;5.984;2024-03-25T09:33:14;8.38;81.23
47861;HTU21D;33620;52.340;5.984;2024-03-25T09:35:39;8.45;79.93
47861;HTU21D;33620;52.340;5.984;2024-03-25T09:38:05;8.58;81.39
47861;HTU21D;33620;52.340;5.984;2024-03-25T09:40:31;8.75;79.56
47861;HTU21D;33620;52.340;5.984;2024-03-25T09:42:56;8.73;75.86
47861;HTU21D;33620;52.340;5.984;2024-03-25T09:45:24;8.77;76.44
47861;HTU21D;33620;52.340;5.984;2024-03-25T09:47:50;8.76;74.03
47861;HTU21D;33620;52.340;5.984;2024-03-25T09:50:16;8.73;72.35
47861;HTU21D;33620;52.340;5.984;2024-03-25T09:52:45;8.76;74.23
47861;HTU21D;33620;52.340;5.984;2024-03-25T09:55:11;8.83;74.66
47861;HTU21D;33620;52.340;5.984;2024-03-25T09:57:36;8.96;74.87
47861;HTU21D;33620;52.340;5.984;2024-03-25T10:00:04;9.02;72.76
47861;HTU21D;33620;52.340;5.984;2024-03-25T10:02:30;9.15;74.70
47861;HTU21D;33620;52.340;5.984;2024-03-25T10:04:56;9.17;71.79
47861;HTU21D;33620;52.340;5.984;2024-03-25T10:07:22;9.10;70.24
47861;HTU21D;33620;52.340;5.984;2024-03-25T10:09:51;9.14;70.89
47861;HTU21D;33620;52.340;5.984;2024-03-25T10:12:17;9.15;69.36
47861;HTU21D;33620;52.340;5.984;2024-03-25T10:14:43;9.18;70.35
47861;HTU21D;33620;52.340;5.984;2024-03-25T10:17:09;9.30;72.41
47861;HTU21D;33620;52.340;5.984;2024-03-25T10:19:35;9.35;69.97
47861;HTU21D;33620;52.340;5.984;2024-03-25T10:22:04;9.27;67.85
47861;HTU21D;33620;52.340;5.984;2024-03-25T10:24:44;9.32;69.86
47861;HTU21D;33620;52.340;5.984;2024-03-25T10:27:22;9.34;69.93
47861;HTU21D;33620;52.340;5.984;2024-03-25T10:29:51;9.41;70.81
47861;HTU21D;33620;52.340;5.984;2024-03-25T10:32:17;9.36;68.73
47861;HTU21D;33620;52.340;5.984;2024-03-25T10:34:42;9.45;70.32
47861;HTU21D;33620;52.340;5.984;2024-03-25T10:37:09;9.52;70.44
47861;HTU21D;33620;52.340;5.984;2024-03-25T10:39:39;9.60;69.71
47861;HTU21D;33620;52.340;5.984;2024-03-25T10:42:05;9.64;67.31
47861;HTU21D;33620;52.340;5.984;2024-03-25T10:44:31;9.75;69.39
47861;HTU21D;33620;52.340;5.984;2024-03-25T10:47:03;9.90;69.50
47861;HTU21D;33620;52.340;5.984;2024-03-25T10:49:42;9.99;67.69
47861;HTU21D;33620;52.340;5.984;2024-03-25T10:52:11;10.13;69.34
47861;HTU21D;33620;52.340;5.984;2024-03-25T10:54:38;10.26;68.30
47861;HTU21D;33620;52.340;5.984;2024-03-25T10:57:05;10.38;68.77
47861;HTU21D;33620;52.340;5.984;2024-03-25T10:59:31;10.46;69.36
47861;HTU21D;33620;52.340;5.984;2024-03-25T11:01:57;10.40;66.86
47861;HTU21D;33620;52.340;5.984;2024-03-25T11:04:24;10.52;70.08
47861;HTU21D;33620;52.340;5.984;2024-03-25T11:06:50;10.60;68.30
47861;HTU21D;33620;52.340;5.984;2024-03-25T11:09:24;10.67;68.04
47861;HTU21D;33620;52.340;5.984;2024-03-25T11:11:53;10.69;67.21
47861;HTU21D;33620;52.340;5.984;2024-03-25T11:14:18;10.55;65.30
47861;HTU21D;33620;52.340;5.984;2024-03-25T11:16:54;10.48;66.57
47861;HTU21D;33620;52.340;5.984;2024-03-25T11:19:20;10.44;67.23
47861;HTU21D;33620;52.340;5.984;2024-03-25T11:21:46;10.42;66.55
47861;HTU21D;33620;52.340;5.984;2024-03-25T11:24:12;10.36;65.86
47861;HTU21D;33620;52.340;5.984;2024-03-25T11:26:43;10.31;66.44
47861;HTU21D;33620;52.340;5.984;2024-03-25T11:29:09;10.29;66.15
47861;HTU21D;33620;52.340;5.984;2024-03-25T11:31:38;10.22;65.70
47861;HTU21D;33620;52.340;5.984;2024-03-25T11:34:05;10.22;65.37
47861;HTU21D;33620;52.340;5.984;2024-03-25T11:36:31;10.18;64.67
47861;HTU21D;33620;52.340;5.984;2024-03-25T11:39:04;10.16;64.59
47861;HTU21D;33620;52.340;5.984;2024-03-25T11:41:31;10.24;66.01
47861;HTU21D;33620;52.340;5.984;2024-03-25T11:43:57;10.27;64.19
47861;HTU21D;33620;52.340;5.984;2024-03-25T11:46:26;10.29;64.11
47861;HTU21D;33620;52.340;5.984;2024-03-25T11:48:52;10.34;64.73
47861;HTU21D;33620;52.340;5.984;2024-03-25T11:51:18;10.43;66.03
47861;HTU21D;33620;52.340;5.984;2024-03-25T11:53:43;10.55;66.56
47861;HTU21D;33620;52.340;5.984;2024-03-25T11:56:10;10.64;64.58
47861;HTU21D;33620;52.340;5.984;2024-03-25T11:58:35;10.66;62.98
47861;HTU21D;33620;52.340;5.984;2024-03-25T12:01:01;10.66;62.84
47861;HTU21D;33620;52.340;5.984;2024-03-25T12:03:27;10.58;61.40
47861;HTU21D;33620;52.340;5.984;2024-03-25T12:05:52;10.50;61.34
47861;HTU21D;33620;52.340;5.984;2024-03-25T12:08:17;10.53;62.11
47861;HTU21D;33620;52.340;5.984;2024-03-25T12:10:43;10.54;62.90
47861;HTU21D;33620;52.340;5.984;2024-03-25T12:13:27;10.60;61.88
47861;HTU21D;33620;52.340;5.984;2024-03-25T12:15:53;10.70;62.43
47861;HTU21D;33620;52.340;5.984;2024-03-25T12:18:20;10.82;61.50
47861;HTU21D;33620;52.340;5.984;2024-03-25T12:20:45;10.97;60.99
47861;HTU21D;33620;52.340;5.984;2024-03-25T12:23:11;11.10;60.47
47861;HTU21D;33620;52.340;5.984;2024-03-25T12:25:36;11.29;62.12
47861;HTU21D;33620;52.340;5.984;2024-03-25T12:28:02;11.51;60.99
47861;HTU21D;33620;52.340;5.984;2024-03-25T12:30:33;11.74;61.73
47861;HTU21D;33620;52.340;5.984;2024-03-25T12:33:00;11.97;61.03
47861;HTU21D;33620;52.340;5.984;2024-03-25T12:35:25;12.03;57.12
47861;HTU21D;33620;52.340;5.984;2024-03-25T12:37:51;12.14;58.25
47861;HTU21D;33620;52.340;5.984;2024-03-25T12:40:35;12.07;57.98
47861;HTU21D;33620;52.340;5.984;2024-03-25T12:43:00;11.97;56.45
47861;HTU21D;33620;52.340;5.984;2024-03-25T12:45:26;11.88;59.03
47861;HTU21D;33620;52.340;5.984;2024-03-25T12:47:51;11.77;55.78
47861;HTU21D;33620;52.340;5.984;2024-03-25T12:50:17;11.75;58.02
47861;HTU21D;33620;52.340;5.984;2024-03-25T12:52:43;11.77;60.06
47861;HTU21D;33620;52.340;5.984;2024-03-25T12:55:09;11.79;59.68
47861;HTU21D;33620;52.340;5.984;2024-03-25T12:57:34;11.84;57.86
47861;HTU21D;33620;52.340;5.984;2024-03-25T13:00:00;11.89;59.23
47861;HTU21D;33620;52.340;5.984;2024-03-25T13:02:26;12.05;59.51
47861;HTU21D;33620;52.340;5.984;2024-03-25T13:04:52;12.20;58.87
47861;HTU21D;33620;52.340;5.984;2024-03-25T13:07:17;12.34;56.03
47861;HTU21D;33620;52.340;5.984;2024-03-25T13:09:42;12.46;58.41
47861;HTU21D;33620;52.340;5.984;2024-03-25T13:12:08;12.66;57.77
47861;HTU21D;33620;52.340;5.984;2024-03-25T13:14:33;12.79;58.23
47861;HTU21D;33620;52.340;5.984;2024-03-25T13:16:58;13.01;57.32
47861;HTU21D;33620;52.340;5.984;2024-03-25T13:19:24;13.03;55.83
47861;HTU21D;33620;52.340;5.984;2024-03-25T13:21:53;13.09;55.42
47861;HTU21D;33620;52.340;5.984;2024-03-25T13:24:18;13.20;57.05
47861;HTU21D;33620;52.340;5.984;2024-03-25T13:26:44;13.22;54.44
47861;HTU21D;33620;52.340;5.984;2024-03-25T13:29:09;13.18;54.97
47861;HTU21D;33620;52.340;5.984;2024-03-25T13:31:36;13.10;54.95
47861;HTU21D;33620;52.340;5.984;2024-03-25T13:34:02;13.08;54.81
47861;HTU21D;33620;52.340;5.984;2024-03-25T13:36:28;13.05;52.54
47861;HTU21D;33620;52.340;5.984;2024-03-25T13:38:53;13.05;53.76
47861;HTU21D;33620;52.340;5.984;2024-03-25T13:41:19;13.07;52.75
47861;HTU21D;33620;52.340;5.984;2024-03-25T13:43:47;13.16;53.63
47861;HTU21D;33620;52.340;5.984;2024-03-25T13:46:12;13.32;52.36
47861;HTU21D;33620;52.340;5.984;2024-03-25T13:48:38;13.44;52.38
47861;HTU21D;33620;52.340;5.984;2024-03-25T13:51:04;13.54;53.45
47861;HTU21D;33620;52.340;5.984;2024-03-25T13:53:29;13.58;54.11
47861;HTU21D;33620;52.340;5.984;2024-03-25T13:55:55;13.34;53.00
47861;HTU21D;33620;52.340;5.984;2024-03-25T13:58:20;13.27;53.30
47861;HTU21D;33620;52.340;5.984;2024-03-25T14:00:46;13.24;52.98
47861;HTU21D;33620;52.340;5.984;2024-03-25T14:03:11;13.29;54.23
47861;HTU21D;33620;52.340;5.984;2024-03-25T14:05:36;13.22;53.34
47861;HTU21D;33620;52.340;5.984;2024-03-25T14:08:02;13.22;54.12
47861;HTU21D;33620;52.340;5.984;2024-03-25T14:10:28;13.31;54.17
47861;HTU21D;33620;52.340;5.984;2024-03-25T14:12:55;13.48;54.91
47861;HTU21D;33620;52.340;5.984;2024-03-25T14:15:20;13.47;52.98
47861;HTU21D;33620;52.340;5.984;2024-03-25T14:17:45;13.33;52.15
47861;HTU21D;33620;52.340;5.984;2024-03-25T14:20:11;13.19;54.36
47861;HTU21D;33620;52.340;5.984;2024-03-25T14:22:36;13.09;54.18
47861;HTU21D;33620;52.340;5.984;2024-03-25T14:25:02;12.95;54.14
47861;HTU21D;33620;52.340;5.984;2024-03-25T14:27:27;12.91;53.96
47861;HTU21D;33620;52.340;5.984;2024-03-25T14:29:53;12.88;51.72
47861;HTU21D;33620;52.340;5.984;2024-03-25T14:32:19;12.92;51.83
47861;HTU21D;33620;52.340;5.984;2024-03-25T14:34:45;12.94;51.77
47861;HTU21D;33620;52.340;5.984;2024-03-25T14:37:11;13.03;53.63
47861;HTU21D;33620;52.340;5.984;2024-03-25T14:39:36;13.14;51.97
47861;HTU21D;33620;52.340;5.984;2024-03-25T14:42:01;13.18;50.19
47861;HTU21D;33620;52.340;5.984;2024-03-25T14:44:27;13.23;50.17
47861;HTU21D;33620;52.340;5.984;2024-03-25T14:46:52;13.17;47.93
47861;HTU21D;33620;52.340;5.984;2024-03-25T14:49:17;13.17;49.16
47861;HTU21D;33620;52.340;5.984;2024-03-25T14:51:43;13.22;50.05
47861;HTU21D;33620;52.340;5.984;2024-03-25T14:54:08;13.19;49.59
47861;HTU21D;33620;52.340;5.984;2024-03-25T14:56:33;13.25;49.99
47861;HTU21D;33620;52.340;5.984;2024-03-25T14:58:59;13.19;50.57
47861;HTU21D;33620;52.340;5.984;2024-03-25T15:01:24;13.14;51.37
47861;HTU21D;33620;52.340;5.984;2024-03-25T15:03:50;13.20;51.46
47861;HTU21D;33620;52.340;5.984;2024-03-25T15:06:15;13.19;50.47
47861;HTU21D;33620;52.340;5.984;2024-03-25T15:08:41;13.01;49.55
47861;HTU21D;33620;52.340;5.984;2024-03-25T15:11:07;12.86;51.12
47861;HTU21D;33620;52.340;5.984;2024-03-25T15:13:33;12.74;53.27
47861;HTU21D;33620;52.340;5.984;2024-03-25T15:16:02;12.66;53.49
47861;HTU21D;33620;52.340;5.984;2024-03-25T15:18:28;12.58;53.40
47861;HTU21D;33620;52.340;5.984;2024-03-25T15:21:03;12.62;52.55